createdAt,value
2022-12-02T00:00:24.168Z,72.64
2022-12-02T00:03:17.570Z,72.63
2022-12-02T00:05:50.679Z,72.58
2022-12-02T00:08:26.293Z,72.63
2022-12-02T00:10:58.927Z,72.75
2022-12-02T00:13:29.883Z,72.69
2022-12-02T00:16:03.795Z,72.82
2022-12-02T00:18:33.659Z,72.89
2022-12-02T00:21:03.055Z,72.77
2022-12-02T00:23:31.717Z,72.80
2022-12-02T00:26:02.039Z,72.85
2022-12-02T00:28:32.550Z,72.90
2022-12-02T00:31:02.469Z,72.77
2022-12-02T00:33:33.154Z,73.04
2022-12-02T00:36:02.933Z,73.05
2022-12-02T00:38:33.029Z,73.10
2022-12-02T00:41:03.087Z,73.28
2022-12-02T00:43:52.151Z,73.33
2022-12-02T00:46:36.037Z,73.41
2022-12-02T00:49:11.342Z,73.30
2022-12-02T00:51:42.327Z,73.35
2022-12-02T00:54:13.167Z,73.31
2022-12-02T00:56:43.926Z,73.30
2022-12-02T00:59:14.059Z,73.34
2022-12-02T01:01:45.525Z,73.54
2022-12-02T01:04:15.195Z,73.41
2022-12-02T01:06:45.507Z,73.41
2022-12-02T01:09:15.789Z,73.44
2022-12-02T01:11:46.154Z,73.37
2022-12-02T01:14:14.725Z,73.44
2022-12-02T01:16:45.181Z,73.50
2022-12-02T01:19:13.954Z,73.54
2022-12-02T01:21:44.221Z,73.61
2022-12-02T01:24:14.675Z,73.49
2022-12-02T01:26:45.727Z,73.54
2022-12-02T01:29:15.824Z,73.40
2022-12-02T01:31:45.535Z,73.54
2022-12-02T01:34:15.858Z,73.61
2022-12-02T01:36:45.758Z,73.60
2022-12-02T01:39:14.303Z,73.57
2022-12-02T01:41:44.557Z,73.62
2022-12-02T01:44:14.993Z,73.46
2022-12-02T01:46:43.991Z,73.80
2022-12-02T01:49:14.331Z,73.53
2022-12-02T01:51:44.323Z,73.76
2022-12-02T01:54:14.557Z,73.85
2022-12-02T01:56:44.817Z,73.69
2022-12-02T01:59:17.290Z,73.77
2022-12-02T02:01:47.776Z,73.84
2022-12-02T02:04:18.884Z,74.08
2022-12-02T02:06:49.372Z,74.15
2022-12-02T02:09:20.388Z,74.06
2022-12-02T02:11:50.546Z,74.03
2022-12-02T02:14:20.829Z,74.01
2022-12-02T02:16:50.879Z,73.99
2022-12-02T02:19:19.551Z,74.06
2022-12-02T02:21:53.113Z,73.98
2022-12-02T02:24:25.032Z,73.90
2022-12-02T02:26:55.288Z,74.04
2022-12-02T02:29:25.807Z,73.94
2022-12-02T02:31:56.722Z,73.86
2022-12-02T02:34:27.740Z,73.77
2022-12-02T02:36:57.781Z,73.99
2022-12-02T02:39:27.840Z,74.04
2022-12-02T02:41:58.052Z,74.02
2022-12-02T02:44:32.174Z,73.95
2022-12-02T02:47:02.575Z,74.04
2022-12-02T02:49:44.656Z,74.00
2022-12-02T02:52:15.638Z,73.76
2022-12-02T02:54:45.900Z,73.79
2022-12-02T02:57:17.942Z,74.17
2022-12-02T02:59:54.768Z,74.07
2022-12-02T03:02:27.290Z,74.15
2022-12-02T03:04:56.305Z,74.23
2022-12-02T03:07:26.647Z,74.05
2022-12-02T03:09:56.808Z,74.04
2022-12-02T03:12:27.181Z,73.89
2022-12-02T03:14:57.751Z,74.13
2022-12-02T03:17:27.504Z,74.22
2022-12-02T03:19:58.360Z,74.08
2022-12-02T03:22:28.371Z,74.12
2022-12-02T03:24:57.905Z,73.94
2022-12-02T03:27:29.211Z,73.83
2022-12-02T03:29:59.449Z,74.05
2022-12-02T03:32:29.831Z,74.02
2022-12-02T03:35:00.387Z,74.01
2022-12-02T03:37:30.309Z,73.93
2022-12-02T03:39:59.934Z,74.10
2022-12-02T03:42:29.432Z,74.14
2022-12-02T03:44:59.097Z,73.96
2022-12-02T03:47:29.801Z,73.84
2022-12-02T03:50:00.128Z,73.99
2022-12-02T03:52:30.170Z,73.89
2022-12-02T03:54:59.176Z,73.83
2022-12-02T03:57:32.419Z,73.84
2022-12-02T04:00:06.521Z,73.99
2022-12-02T04:02:44.061Z,73.74
2022-12-02T04:05:14.323Z,73.70
2022-12-02T04:07:45.034Z,73.99
2022-12-02T04:10:14.682Z,73.99
2022-12-02T04:12:45.584Z,73.90
2022-12-02T04:15:16.815Z,73.85
2022-12-02T04:17:47.634Z,73.94
2022-12-02T04:20:17.662Z,74.13
2022-12-02T04:22:47.906Z,74.12
2022-12-02T04:25:17.987Z,74.21
2022-12-02T04:27:47.676Z,74.10
2022-12-02T04:30:17.865Z,74.27
2022-12-02T04:32:48.478Z,74.28
2022-12-02T04:35:18.407Z,74.37
2022-12-02T04:37:47.882Z,74.56
2022-12-02T04:40:18.590Z,74.65
2022-12-02T04:42:48.170Z,74.46
2022-12-02T04:45:17.920Z,74.58
2022-12-02T04:47:46.739Z,74.58
2022-12-02T04:50:16.254Z,74.83
2022-12-02T04:52:46.797Z,74.78
2022-12-02T04:55:17.846Z,74.66
2022-12-02T04:57:48.600Z,74.75
2022-12-02T05:00:19.018Z,74.80
2022-12-02T05:02:49.542Z,74.95
2022-12-02T05:05:20.314Z,74.91
2022-12-02T05:07:51.239Z,74.96
2022-12-02T05:10:22.783Z,74.96
2022-12-02T05:12:53.361Z,74.80
2022-12-02T05:15:23.284Z,74.69
2022-12-02T05:17:53.778Z,74.59
2022-12-02T05:20:23.521Z,74.62
2022-12-02T05:22:53.724Z,74.55
2022-12-02T05:25:23.712Z,74.43
2022-12-02T05:27:53.869Z,74.46
2022-12-02T05:30:23.772Z,74.46
2022-12-02T05:32:53.943Z,74.48
2022-12-02T05:35:23.803Z,74.08
2022-12-02T05:37:54.091Z,74.01
2022-12-02T05:40:24.049Z,74.38
2022-12-02T05:42:56.070Z,74.35
2022-12-02T05:45:26.180Z,74.35
2022-12-02T05:47:56.625Z,74.60
2022-12-02T05:50:26.389Z,74.26
2022-12-02T05:52:58.174Z,74.29
2022-12-02T05:55:28.771Z,74.07
2022-12-02T05:58:03.193Z,73.90
2022-12-02T06:00:32.696Z,74.02
2022-12-02T06:03:09.708Z,74.27
2022-12-02T06:05:43.353Z,74.37
2022-12-02T06:08:19.541Z,74.44
2022-12-02T06:10:58.303Z,74.53
2022-12-02T06:13:32.122Z,74.48
2022-12-02T06:16:05.882Z,74.46
2022-12-02T06:18:36.835Z,74.37
2022-12-02T06:21:14.551Z,74.23
2022-12-02T06:23:50.200Z,74.23
2022-12-02T06:26:22.201Z,74.16
2022-12-02T06:29:04.308Z,74.20
2022-12-02T06:31:38.083Z,74.31
2022-12-02T06:34:37.065Z,74.22
2022-12-02T06:37:22.097Z,74.37
2022-12-02T06:40:26.833Z,74.19
2022-12-02T06:42:49.849Z,74.07
2022-12-02T06:45:30.557Z,74.24
2022-12-02T06:48:27.948Z,74.19
2022-12-02T06:51:08.105Z,74.36
2022-12-02T06:53:39.835Z,74.37
2022-12-02T06:56:22.369Z,74.80
2022-12-02T06:58:59.041Z,74.98
2022-12-02T07:01:42.001Z,75.09
2022-12-02T07:04:45.840Z,75.05
2022-12-02T07:07:22.711Z,75.11
2022-12-02T07:10:08.166Z,75.19
2022-12-02T07:12:42.793Z,75.02
2022-12-02T07:15:30.456Z,75.06
2022-12-02T07:18:12.835Z,75.00
2022-12-02T07:20:43.910Z,74.84
2022-12-02T07:23:35.678Z,75.16
2022-12-02T07:26:06.017Z,75.31
2022-12-02T07:28:41.245Z,75.47
2022-12-02T07:31:11.855Z,75.73
2022-12-02T07:33:43.467Z,75.78
2022-12-02T07:36:13.356Z,76.06
2022-12-02T07:39:05.338Z,76.38
2022-12-02T07:41:37.179Z,76.60
2022-12-02T07:44:07.818Z,76.49
2022-12-02T07:46:37.296Z,76.55
2022-12-02T07:49:07.531Z,76.92
2022-12-02T07:51:37.005Z,77.18
2022-12-02T07:54:07.368Z,77.24
2022-12-02T07:56:36.110Z,77.44
2022-12-02T07:59:14.068Z,77.39
2022-12-02T08:01:45.866Z,77.51
2022-12-02T08:04:16.032Z,77.32
2022-12-02T08:06:46.105Z,77.45
2022-12-02T08:09:16.196Z,77.54
2022-12-02T08:11:46.236Z,77.46
2022-12-02T08:14:15.649Z,77.26
2022-12-02T08:16:44.282Z,77.14
2022-12-02T08:19:13.726Z,76.98
2022-12-02T08:21:42.435Z,76.95
2022-12-02T08:24:12.166Z,76.50
2022-12-02T08:26:43.872Z,76.61
2022-12-02T08:29:12.786Z,76.13
2022-12-02T08:31:43.038Z,76.01
2022-12-02T08:34:12.820Z,76.12
2022-12-02T08:36:42.186Z,76.07
2022-12-02T08:39:12.362Z,75.90
2022-12-02T08:41:42.298Z,75.39
2022-12-02T08:44:12.194Z,74.79
2022-12-02T08:46:42.245Z,74.31
2022-12-02T08:49:11.796Z,73.60
2022-12-02T08:51:41.736Z,73.76
2022-12-02T08:54:12.197Z,73.21
2022-12-02T08:56:43.217Z,72.96
2022-12-02T08:59:13.647Z,72.13
2022-12-02T09:01:42.416Z,72.29
2022-12-02T09:04:12.720Z,72.14
2022-12-02T09:06:42.465Z,72.22
2022-12-02T09:09:11.480Z,72.19
2022-12-02T09:11:42.309Z,71.97
2022-12-02T09:14:12.137Z,72.22
2022-12-02T09:16:42.070Z,72.14
2022-12-02T09:19:10.893Z,72.23
2022-12-02T09:21:41.668Z,71.93
2022-12-02T09:24:11.152Z,72.07
2022-12-02T09:26:40.473Z,72.26
2022-12-02T09:29:10.519Z,71.87
2022-12-02T09:31:40.801Z,71.80
2022-12-02T09:34:10.099Z,71.75
2022-12-02T09:36:40.404Z,72.31
2022-12-02T09:39:10.931Z,72.17
2022-12-02T09:41:42.657Z,71.61
2022-12-02T09:44:12.445Z,70.98
2022-12-02T09:46:42.773Z,70.97
2022-12-02T09:49:12.976Z,70.57
2022-12-02T09:51:43.184Z,68.47
2022-12-02T09:54:17.719Z,68.77
2022-12-02T09:56:48.272Z,68.00
2022-12-02T09:59:18.697Z,67.97
2022-12-02T10:01:49.852Z,67.49
2022-12-02T10:04:22.271Z,67.20
2022-12-02T10:06:52.329Z,66.76
2022-12-02T10:09:30.499Z,66.35
2022-12-02T10:12:01.023Z,66.26
2022-12-02T10:14:31.153Z,66.77
2022-12-02T10:17:01.123Z,66.24
2022-12-02T10:19:31.264Z,66.40
2022-12-02T10:22:00.694Z,66.29
2022-12-02T10:24:38.916Z,66.59
2022-12-02T10:27:08.383Z,66.36
2022-12-02T10:29:38.596Z,66.33
2022-12-02T10:32:21.572Z,66.37
2022-12-02T10:35:08.500Z,66.26
2022-12-02T10:37:38.999Z,66.68
2022-12-02T10:40:23.441Z,67.01
2022-12-02T10:43:13.473Z,66.71
2022-12-02T10:45:58.133Z,67.13
2022-12-02T10:48:28.310Z,67.35
2022-12-02T10:50:59.191Z,67.60
2022-12-02T10:53:31.492Z,67.71
2022-12-02T10:56:01.736Z,67.41
2022-12-02T10:58:32.115Z,67.43
2022-12-02T11:01:02.947Z,67.62
2022-12-02T11:03:33.100Z,67.71
2022-12-02T11:06:05.929Z,67.81
2022-12-02T11:08:35.563Z,67.59
2022-12-02T11:11:16.791Z,67.12
2022-12-02T11:14:05.211Z,67.30
2022-12-02T11:16:43.612Z,67.34
2022-12-02T11:19:35.702Z,67.16
2022-12-02T11:22:26.882Z,66.95
2022-12-02T11:24:58.979Z,66.69
2022-12-02T11:27:29.172Z,66.74
2022-12-02T11:30:17.024Z,66.61
2022-12-02T12:43:55.618Z,66.53
2022-12-02T12:46:26.700Z,66.20
2022-12-02T12:48:56.497Z,66.35
2022-12-02T12:51:27.153Z,66.35
2022-12-02T12:53:57.675Z,66.39
2022-12-02T12:56:30.047Z,66.15
2022-12-02T12:58:59.327Z,66.18
2022-12-02T13:01:29.500Z,65.87
2022-12-02T13:03:59.965Z,65.84
2022-12-02T13:06:30.540Z,66.01
2022-12-02T13:09:00.227Z,66.16
2022-12-02T13:11:29.823Z,65.87
2022-12-02T13:14:00.192Z,65.80
2022-12-02T13:16:31.081Z,65.88
2022-12-02T13:19:01.594Z,65.51
2022-12-02T13:21:31.942Z,65.52
2022-12-02T13:24:04.756Z,65.64
2022-12-02T13:26:34.382Z,65.60
2022-12-02T13:29:05.914Z,65.98
2022-12-02T13:31:37.555Z,66.03
2022-12-02T13:34:07.243Z,66.30
2022-12-02T13:36:41.310Z,66.33
2022-12-02T13:39:11.989Z,66.29
2022-12-02T13:41:41.631Z,66.16
2022-12-02T13:44:11.963Z,66.18
2022-12-02T13:46:42.254Z,65.86
2022-12-02T13:49:12.083Z,66.13
2022-12-02T13:51:41.629Z,66.24
2022-12-02T13:54:11.335Z,66.12
2022-12-02T13:56:40.916Z,66.58
2022-12-02T13:59:12.732Z,66.68
2022-12-02T14:01:42.642Z,66.52
2022-12-02T14:04:12.276Z,66.75
2022-12-02T14:06:41.935Z,66.83
2022-12-02T14:09:11.540Z,66.62
2022-12-02T14:11:41.793Z,66.88
2022-12-02T14:14:11.826Z,67.35
2022-12-02T14:16:42.525Z,67.02
2022-12-02T14:19:12.861Z,66.76
2022-12-02T14:21:42.043Z,66.88
2022-12-02T14:24:12.568Z,67.26
2022-12-02T14:26:41.940Z,67.31
2022-12-02T14:29:12.879Z,67.40
2022-12-02T14:31:43.626Z,67.47
2022-12-02T14:34:14.444Z,67.45
2022-12-02T14:36:45.055Z,67.84
2022-12-02T14:39:15.164Z,67.76
2022-12-02T14:41:45.500Z,67.77
2022-12-02T14:44:15.713Z,68.03
2022-12-02T14:46:47.692Z,68.58
2022-12-02T14:52:09.428Z,69.14
2022-12-02T14:54:40.280Z,69.66
2022-12-02T14:57:15.098Z,70.26
2022-12-02T14:59:45.827Z,70.17
2022-12-02T15:02:16.111Z,70.37
2022-12-02T15:04:46.590Z,70.66
2022-12-02T15:07:17.301Z,70.93
2022-12-02T15:09:48.379Z,70.87
2022-12-02T15:12:18.422Z,70.96
2022-12-02T15:14:48.995Z,71.19
2022-12-02T15:17:20.114Z,71.08
2022-12-02T15:19:50.598Z,71.16
2022-12-02T15:22:20.711Z,71.58
2022-12-02T15:24:54.803Z,71.52
2022-12-02T15:27:27.059Z,71.62
2022-12-02T15:29:57.623Z,71.89
2022-12-02T15:32:28.256Z,71.79
2022-12-02T15:34:58.955Z,71.75
2022-12-02T15:37:29.408Z,72.04
2022-12-02T15:39:59.854Z,71.99
2022-12-02T15:42:29.866Z,72.21
2022-12-02T15:45:00.331Z,72.19
2022-12-02T15:47:30.884Z,72.35
2022-12-02T15:50:01.486Z,72.31
2022-12-02T15:52:31.876Z,72.60
2022-12-02T15:55:01.547Z,72.84
2022-12-02T15:57:30.391Z,72.65
2022-12-02T16:00:06.351Z,72.86
2022-12-02T16:02:36.499Z,72.91
2022-12-02T16:05:07.020Z,72.97
2022-12-02T16:07:37.144Z,72.98
2022-12-02T16:10:08.225Z,73.13
2022-12-02T16:12:38.202Z,72.95
2022-12-02T16:15:10.696Z,72.66
2022-12-02T16:17:41.132Z,72.73
2022-12-02T16:20:12.646Z,73.06
2022-12-02T16:22:41.791Z,72.91
2022-12-02T16:25:11.892Z,72.83
2022-12-02T16:27:42.460Z,72.90
2022-12-02T16:30:13.195Z,72.90
2022-12-02T16:32:44.026Z,73.05
2022-12-02T16:35:13.199Z,73.08
2022-12-02T16:37:44.505Z,72.90
2022-12-02T16:40:14.815Z,72.86
2022-12-02T16:42:44.918Z,72.68
2022-12-02T16:45:14.457Z,72.77
2022-12-02T16:47:45.153Z,72.57
2022-12-02T16:50:17.482Z,72.54
2022-12-02T16:52:47.983Z,72.51
2022-12-02T16:55:18.791Z,72.57
2022-12-02T16:57:49.547Z,72.49
2022-12-02T17:00:20.187Z,72.51
2022-12-02T17:02:50.769Z,72.65
2022-12-02T17:05:21.178Z,72.96
2022-12-02T17:07:52.159Z,72.69
2022-12-02T17:10:22.669Z,72.84
2022-12-02T17:12:53.101Z,72.84
2022-12-02T17:15:23.307Z,72.77
2022-12-02T17:17:53.720Z,72.90
2022-12-02T17:20:24.028Z,73.02
2022-12-02T17:22:54.713Z,73.01
2022-12-02T17:25:24.732Z,73.00
2022-12-02T17:27:55.244Z,72.96
2022-12-02T17:30:25.615Z,73.04
2022-12-02T17:32:57.232Z,73.12
2022-12-02T17:35:27.897Z,72.97
2022-12-02T17:37:58.724Z,72.69
2022-12-02T17:40:28.793Z,72.70
2022-12-02T17:42:59.269Z,72.95
2022-12-02T17:45:29.374Z,73.17
2022-12-02T17:47:59.943Z,73.03
2022-12-02T17:50:30.577Z,73.15
2022-12-02T17:53:01.292Z,72.84
2022-12-02T17:55:31.585Z,72.87
2022-12-02T17:58:02.027Z,72.93
2022-12-02T18:00:34.281Z,73.03
2022-12-02T18:03:04.614Z,73.03
2022-12-02T18:05:35.377Z,73.17
2022-12-02T18:08:05.831Z,73.04
2022-12-02T18:10:35.907Z,73.09
2022-12-02T18:13:06.157Z,73.21
2022-12-02T18:15:36.452Z,73.22
2022-12-02T18:18:06.856Z,73.32
2022-12-02T18:20:36.618Z,73.58
2022-12-02T18:23:07.414Z,73.60
2022-12-02T18:25:36.310Z,73.68
2022-12-02T18:28:06.664Z,73.43
2022-12-02T18:30:37.066Z,73.58
2022-12-02T18:33:07.516Z,73.65
2022-12-02T18:35:37.672Z,73.46
2022-12-02T18:38:07.714Z,73.76
2022-12-02T18:40:37.913Z,73.85
2022-12-02T18:43:07.830Z,73.73
2022-12-02T18:45:37.464Z,73.65
2022-12-02T18:48:07.614Z,73.90
2022-12-02T18:50:38.237Z,74.03
2022-12-02T18:53:08.239Z,74.02
2022-12-02T18:55:38.428Z,73.95
2022-12-02T18:58:08.704Z,74.03
2022-12-02T19:00:38.999Z,74.23
2022-12-02T19:03:07.911Z,74.16
2022-12-02T19:05:39.872Z,74.16
2022-12-02T19:08:09.993Z,74.27
2022-12-02T19:10:40.263Z,74.49
2022-12-02T19:13:10.324Z,74.70
2022-12-02T19:15:39.971Z,74.55
2022-12-02T19:18:09.260Z,74.62
2022-12-02T19:20:42.025Z,74.48
2022-12-02T19:23:14.473Z,74.60
2022-12-02T19:25:49.374Z,74.76
2022-12-02T19:28:20.812Z,74.66
2022-12-02T19:30:51.456Z,74.77
2022-12-02T19:33:23.012Z,74.55
2022-12-02T19:35:53.750Z,74.63
2022-12-02T19:38:24.237Z,74.59
2022-12-02T19:40:54.705Z,74.48
2022-12-02T19:43:24.881Z,74.48
2022-12-02T19:45:55.221Z,74.77
2022-12-02T19:48:25.697Z,75.09
2022-12-02T19:50:57.939Z,75.04
2022-12-02T19:53:28.114Z,75.01
2022-12-02T19:55:58.392Z,74.94
2022-12-02T19:58:27.595Z,74.82
2022-12-02T20:00:58.439Z,74.53
2022-12-02T20:03:29.025Z,74.49
2022-12-02T20:06:03.377Z,74.57
2022-12-02T20:08:33.315Z,74.59
2022-12-02T20:11:03.444Z,74.48
2022-12-02T20:13:33.843Z,74.53
2022-12-02T20:16:03.960Z,74.50
2022-12-02T20:18:35.673Z,74.41
2022-12-02T20:21:08.866Z,74.46
2022-12-02T20:23:42.165Z,74.87
2022-12-02T20:26:12.339Z,74.96
2022-12-02T20:28:41.363Z,74.87
2022-12-02T20:31:12.434Z,75.01
2022-12-02T20:33:42.568Z,74.98
2022-12-02T20:36:12.333Z,75.30
2022-12-02T20:38:41.214Z,75.11
2022-12-02T20:41:11.234Z,75.44
2022-12-02T20:43:41.439Z,75.31
2022-12-02T20:46:11.585Z,75.52
2022-12-02T20:48:42.539Z,75.58
2022-12-02T20:51:12.571Z,75.50
2022-12-02T20:53:42.834Z,75.55
2022-12-02T20:56:14.915Z,75.35
2022-12-02T20:58:47.108Z,75.34
2022-12-02T21:01:19.180Z,75.50
2022-12-02T21:03:49.410Z,75.76
2022-12-02T21:06:19.084Z,75.91
2022-12-02T21:08:50.676Z,75.90
2022-12-02T21:11:20.877Z,76.08
2022-12-02T21:13:51.376Z,76.10
2022-12-02T21:16:22.142Z,76.23
2022-12-02T21:18:52.573Z,76.33
2022-12-02T21:21:22.756Z,76.34
2022-12-02T21:23:52.781Z,76.28
2022-12-02T21:26:22.965Z,76.59
2022-12-02T21:28:53.758Z,76.64
2022-12-02T21:31:24.065Z,76.79
2022-12-02T21:33:54.519Z,76.77
2022-12-02T21:36:25.178Z,77.11
2022-12-02T21:38:55.625Z,77.03
2022-12-02T21:41:25.889Z,76.99
2022-12-02T21:43:56.345Z,77.11
2022-12-02T21:46:26.736Z,77.29
2022-12-02T21:48:57.289Z,77.21
2022-12-02T21:51:27.446Z,77.45
2022-12-02T21:53:57.848Z,77.32
2022-12-02T21:56:33.267Z,77.23
2022-12-02T21:59:07.076Z,77.38
2022-12-02T22:01:44.971Z,77.57
2022-12-02T22:04:17.544Z,77.68
2022-12-02T22:06:47.849Z,77.78
2022-12-02T22:09:18.172Z,77.65
2022-12-02T22:11:50.137Z,78.00
2022-12-02T22:14:20.199Z,77.86
2022-12-02T22:16:50.684Z,77.91
2022-12-02T22:19:20.984Z,77.99
2022-12-02T22:21:51.062Z,77.95
2022-12-02T22:24:20.716Z,78.17
2022-12-02T22:26:50.803Z,78.15
2022-12-02T22:29:22.542Z,77.85
2022-12-02T22:31:52.613Z,78.08
2022-12-02T22:34:22.840Z,78.00
2022-12-02T22:36:53.268Z,77.91
2022-12-02T22:39:26.393Z,77.80
2022-12-02T22:41:57.152Z,77.89
2022-12-02T22:44:27.619Z,77.69
2022-12-02T22:46:57.991Z,77.73
2022-12-02T22:49:28.596Z,77.71
2022-12-02T22:51:58.688Z,77.79
2022-12-02T22:54:29.129Z,77.57
2022-12-02T22:56:59.475Z,77.49
2022-12-02T22:59:29.948Z,77.46
2022-12-02T23:01:59.746Z,77.38
2022-12-02T23:04:30.180Z,77.52
2022-12-02T23:06:59.831Z,77.20
2022-12-02T23:09:30.286Z,77.51
2022-12-02T23:11:59.213Z,77.30
2022-12-02T23:14:29.667Z,77.20
2022-12-02T23:16:59.912Z,77.27
2022-12-02T23:19:30.523Z,77.43
2022-12-02T23:21:59.466Z,77.24
2022-12-02T23:24:30.426Z,77.30
2022-12-02T23:27:00.650Z,77.21
2022-12-02T23:29:30.944Z,77.19
2022-12-02T23:32:03.417Z,77.38
2022-12-02T23:34:33.469Z,77.38
2022-12-02T23:37:03.885Z,77.44
2022-12-02T23:39:34.326Z,77.36
2022-12-02T23:42:04.841Z,77.43
2022-12-02T23:44:33.753Z,77.43
2022-12-02T23:47:05.716Z,77.37
2022-12-02T23:49:36.251Z,77.36
2022-12-02T23:52:06.720Z,77.37
2022-12-02T23:54:37.071Z,77.38
2022-12-02T23:57:07.946Z,77.37
2022-12-02T23:59:38.285Z,77.28
